createdAt,value
2022-07-27T00:04:01.107Z,2.00
2022-07-27T00:09:28.688Z,1.90
2022-07-27T00:14:58.967Z,2.20
2022-07-27T00:20:28.095Z,2.03
2022-07-27T00:25:55.724Z,1.83
2022-07-27T00:31:23.386Z,2.47
2022-07-27T00:36:51.104Z,2.53
2022-07-27T00:42:25.360Z,2.60
2022-07-27T00:47:55.022Z,1.80
2022-07-27T00:53:23.108Z,2.60
2022-07-27T00:58:53.611Z,2.13
2022-07-27T01:04:21.314Z,2.30
2022-07-27T01:09:58.916Z,2.10
2022-07-27T01:15:28.004Z,2.07
2022-07-27T01:20:56.672Z,2.60
2022-07-27T01:26:24.337Z,2.07
2022-07-27T01:31:51.958Z,3.10
2022-07-27T01:37:19.675Z,2.93
2022-07-27T01:42:47.492Z,2.03
2022-07-27T01:48:15.238Z,1.77
2022-07-27T01:53:42.850Z,2.37
2022-07-27T01:59:16.359Z,2.50
2022-07-27T02:04:45.117Z,2.80
2022-07-27T02:10:13.200Z,2.23
2022-07-27T02:15:43.156Z,2.83
2022-07-27T02:21:13.548Z,2.83
2022-07-27T02:26:41.207Z,2.43
2022-07-27T02:32:08.799Z,2.53
2022-07-27T02:37:36.514Z,2.10
2022-07-27T02:43:04.647Z,2.23
2022-07-27T02:48:33.204Z,2.13
2022-07-27T02:54:02.678Z,2.67
2022-07-27T02:59:30.723Z,2.17
2022-07-27T03:04:58.283Z,2.60
2022-07-27T03:10:26.019Z,1.93
2022-07-27T03:15:53.841Z,2.20
2022-07-27T03:21:21.814Z,2.80
2022-07-27T03:26:49.523Z,2.87
2022-07-27T03:32:17.195Z,2.20
2022-07-27T03:37:44.814Z,2.50
2022-07-27T03:43:19.386Z,2.33
2022-07-27T03:48:47.158Z,2.40
2022-07-27T03:54:14.942Z,2.27
2022-07-27T03:59:42.645Z,2.00
2022-07-27T04:05:11.066Z,2.87
2022-07-27T04:10:38.978Z,2.30
2022-07-27T04:16:06.572Z,2.37
2022-07-27T04:21:37.916Z,2.20
2022-07-27T04:27:05.594Z,1.80
2022-07-27T04:32:33.176Z,2.07
2022-07-27T04:38:00.727Z,2.67
2022-07-27T04:43:28.292Z,1.93
2022-07-27T04:48:58.002Z,2.30
2022-07-27T04:54:25.640Z,2.00
2022-07-27T04:59:53.306Z,2.47
2022-07-27T05:05:24.819Z,2.77
2022-07-27T05:10:52.430Z,1.93
2022-07-27T05:16:20.053Z,1.80
2022-07-27T05:21:48.041Z,2.43
2022-07-27T05:27:15.705Z,1.70
2022-07-27T05:32:43.392Z,1.97
2022-07-27T05:38:10.984Z,2.10
2022-07-27T05:43:38.643Z,1.33
2022-07-27T05:49:06.294Z,2.10
2022-07-27T05:54:33.932Z,1.83
2022-07-27T06:00:01.713Z,1.43
2022-07-27T06:05:39.089Z,1.83
2022-07-27T06:11:06.724Z,1.83
2022-07-27T06:16:34.532Z,1.70
2022-07-27T06:22:02.176Z,1.80
2022-07-27T06:27:30.679Z,2.20
2022-07-27T06:33:04.833Z,1.73
2022-07-27T06:38:34.423Z,1.97
2022-07-27T06:44:01.979Z,2.13
2022-07-27T06:49:29.575Z,2.13
2022-07-27T06:54:57.422Z,2.17
2022-07-27T07:00:25.155Z,1.80
2022-07-27T07:05:53.009Z,2.20
2022-07-27T07:11:21.794Z,1.93
2022-07-27T07:16:50.183Z,1.77
2022-07-27T07:22:17.780Z,1.33
2022-07-27T07:27:45.536Z,1.87
2022-07-27T07:33:13.337Z,2.10
2022-07-27T07:38:41.057Z,1.90
2022-07-27T07:44:10.038Z,1.87
2022-07-27T07:49:40.018Z,2.30
2022-07-27T07:55:08.475Z,2.10
2022-07-27T08:00:36.578Z,2.57
2022-07-27T08:06:04.473Z,1.73
2022-07-27T08:11:32.285Z,1.30
2022-07-27T08:17:00.157Z,1.50
2022-07-27T08:22:28.246Z,1.40
2022-07-27T08:27:56.348Z,1.43
2022-07-27T08:33:24.487Z,1.20
2022-07-27T08:38:52.124Z,1.30
2022-07-27T08:44:24.941Z,1.30
2022-07-27T08:49:53.055Z,1.00
2022-07-27T08:55:23.349Z,1.13
2022-07-27T09:00:51.293Z,1.10
2022-07-27T09:06:54.225Z,1.83
2022-07-27T09:12:31.688Z,2.50
2022-07-27T09:17:59.546Z,1.43
2022-07-27T09:23:27.369Z,1.77
2022-07-27T09:29:09.145Z,1.77
2022-07-27T09:34:38.578Z,1.80
2022-07-27T09:40:25.582Z,2.07
2022-07-27T09:45:54.463Z,1.30
2022-07-27T09:57:13.175Z,1.30
2022-07-27T10:02:42.958Z,1.80
2022-07-27T10:08:10.644Z,1.10
2022-07-27T10:13:43.838Z,1.30
2022-07-27T10:19:40.272Z,1.60
2022-07-27T10:25:08.444Z,1.30
2022-07-27T10:30:36.789Z,1.37
2022-07-27T10:36:05.342Z,1.50
2022-07-27T10:41:41.506Z,1.30
2022-07-27T10:47:09.660Z,1.53
2022-07-27T10:52:47.082Z,1.50
2022-07-27T10:58:14.872Z,1.57
2022-07-27T11:03:50.429Z,1.83
2022-07-27T11:10:03.109Z,1.67
2022-07-27T11:15:07.712Z,1.60
2022-07-27T11:20:35.650Z,1.60
2022-07-27T11:26:03.577Z,1.50
2022-07-27T11:31:54.287Z,1.00
2022-07-27T11:37:23.611Z,1.40
2022-07-27T11:42:51.293Z,1.13
2022-07-27T11:48:18.941Z,1.73
2022-07-27T11:53:46.967Z,1.07
2022-07-27T11:59:21.113Z,1.43
2022-07-27T12:04:51.653Z,1.20
2022-07-27T12:10:22.966Z,1.10
2022-07-27T12:15:58.144Z,1.33
2022-07-27T12:21:25.804Z,1.53
2022-07-27T12:27:14.404Z,1.60
2022-07-27T12:32:45.979Z,1.20
2022-07-27T12:38:13.843Z,1.43
2022-07-27T12:43:41.735Z,1.60
2022-07-27T12:49:16.614Z,1.10
2022-07-27T12:54:44.681Z,1.30
2022-07-27T13:00:16.576Z,1.50
2022-07-27T13:05:44.473Z,1.33
2022-07-27T13:11:13.782Z,1.33
2022-07-27T13:16:41.630Z,1.33
2022-07-27T13:22:09.467Z,1.33
2022-07-27T13:27:39.066Z,1.53
2022-07-27T13:33:06.760Z,1.30
2022-07-27T13:38:34.289Z,1.30
2022-07-27T13:44:03.176Z,1.23
2022-07-27T13:49:30.900Z,1.37
2022-07-27T13:55:08.104Z,1.33
2022-07-27T14:00:36.437Z,1.30
2022-07-27T14:06:04.317Z,1.27
2022-07-27T14:11:35.174Z,1.40
2022-07-27T14:17:02.987Z,1.57
2022-07-27T14:22:32.686Z,1.00
2022-07-27T14:28:00.472Z,1.23
2022-07-27T14:33:35.165Z,1.20
2022-07-27T14:39:04.870Z,1.40
2022-07-27T14:44:34.872Z,1.23
2022-07-27T14:50:03.849Z,1.80
2022-07-27T14:55:35.228Z,1.67
2022-07-27T15:01:03.363Z,1.30
2022-07-27T15:06:36.830Z,1.23
2022-07-27T15:12:07.136Z,1.33
2022-07-27T15:17:37.725Z,2.17
2022-07-27T15:23:06.535Z,1.50
2022-07-27T15:28:35.043Z,1.20
2022-07-27T15:34:04.182Z,1.67
2022-07-27T15:39:31.760Z,1.10
2022-07-27T15:44:59.659Z,1.10
2022-07-27T15:50:28.553Z,1.40
2022-07-27T15:55:56.158Z,1.33
2022-07-27T16:01:35.214Z,2.70
2022-07-27T16:07:03.862Z,1.13
2022-07-27T16:12:34.999Z,1.67
2022-07-27T16:18:05.868Z,1.70
2022-07-27T16:23:33.943Z,1.30
2022-07-27T16:29:02.585Z,1.20
2022-07-27T16:34:32.265Z,1.10
2022-07-27T16:39:59.962Z,0.90
2022-07-27T16:45:27.664Z,0.90
2022-07-27T16:50:55.238Z,1.03
2022-07-27T16:56:23.018Z,0.97
2022-07-27T17:01:52.296Z,1.10
2022-07-27T17:07:19.964Z,1.30
2022-07-27T17:12:47.529Z,1.73
2022-07-27T17:18:16.415Z,1.40
2022-07-27T17:23:44.977Z,1.27
2022-07-27T17:29:13.009Z,1.27
2022-07-27T17:34:41.481Z,1.77
2022-07-27T17:40:09.670Z,1.60
2022-07-27T17:45:37.436Z,1.40
2022-07-27T17:51:07.596Z,1.67
2022-07-27T17:56:35.715Z,1.50
2022-07-27T18:02:04.738Z,1.73
2022-07-27T18:07:37.983Z,1.40
2022-07-27T18:13:08.275Z,1.53
2022-07-27T18:18:37.164Z,1.50
2022-07-27T18:24:05.212Z,1.10
2022-07-27T18:29:32.761Z,0.93
2022-07-27T18:35:01.739Z,0.90
2022-07-27T18:40:29.408Z,1.27
2022-07-27T18:45:57.176Z,1.90
2022-07-27T18:51:25.010Z,1.63
2022-07-27T18:56:52.616Z,2.20
2022-07-27T19:02:23.116Z,1.83
2022-07-27T19:07:52.307Z,1.60
2022-07-27T19:13:21.007Z,1.83
2022-07-27T19:18:48.531Z,2.60
2022-07-27T19:24:16.265Z,3.10
2022-07-27T19:29:43.992Z,2.30
2022-07-27T19:35:12.356Z,2.07
2022-07-27T19:40:45.133Z,2.30
2022-07-27T19:46:13.835Z,2.40
2022-07-27T19:51:41.437Z,2.57
2022-07-27T19:57:08.992Z,2.80
2022-07-27T20:02:36.916Z,2.90
2022-07-27T20:08:05.287Z,2.30
2022-07-27T20:13:33.044Z,3.60
2022-07-27T20:19:00.898Z,2.40
2022-07-27T20:24:29.564Z,3.00
2022-07-27T20:29:57.258Z,3.80
2022-07-27T20:35:36.636Z,2.23
2022-07-27T20:41:05.469Z,2.70
2022-07-27T20:46:33.496Z,2.13
2022-07-27T20:52:01.113Z,3.00
2022-07-27T20:57:29.008Z,1.27
2022-07-27T21:02:56.936Z,0.90
2022-07-27T21:08:24.553Z,1.77
2022-07-27T21:13:56.152Z,1.87
2022-07-27T21:19:24.379Z,1.37
2022-07-27T21:24:52.103Z,1.73
2022-07-27T21:30:19.776Z,1.87
2022-07-27T21:35:47.431Z,1.93
2022-07-27T21:41:15.647Z,2.17
2022-07-27T21:46:43.652Z,1.13
2022-07-27T21:52:11.473Z,1.20
2022-07-27T21:57:39.416Z,1.37
2022-07-27T22:03:09.494Z,0.90
2022-07-27T22:08:37.456Z,1.00
2022-07-27T22:14:05.182Z,1.17
2022-07-27T22:19:34.961Z,1.07
2022-07-27T22:25:03.545Z,1.97
2022-07-27T22:30:31.308Z,1.60
2022-07-27T22:35:58.858Z,1.20
2022-07-27T22:41:26.460Z,1.00
2022-07-27T22:46:57.441Z,1.37
2022-07-27T22:52:25.576Z,1.77
2022-07-27T22:57:53.551Z,1.50
2022-07-27T23:03:21.082Z,1.43
2022-07-27T23:08:51.879Z,1.50
2022-07-27T23:14:19.635Z,1.70
2022-07-27T23:19:47.593Z,1.67
2022-07-27T23:25:15.136Z,1.10
2022-07-27T23:30:42.808Z,1.73
2022-07-27T23:36:10.534Z,1.73
2022-07-27T23:41:38.137Z,1.63
2022-07-27T23:47:05.764Z,1.50
2022-07-27T23:52:33.811Z,1.90
2022-07-27T23:58:01.547Z,1.40
